Panola, South Carolina
Current Conditions -  °F | °C
As of 5:58 PM on Thursday 23 Oct 2014 (Local Time) from KSSC Reporting Station
Clear Clear  
Wind Chill: 20°   Ceiling: Unl
Heat Index: 20°   Visibility: 10mi
Dew Point:   Wind: 8mph
Humidity: 43%   Direction: 350°N
Pressure: 29.98"   Gusts: NA
Location:  33.7445°N, 80.5249°W
Report Text: KSSC 232158Z AUTO 35007KT 10SM CLR 20/07 A2998 RMK AO2 SLP154 T01950067 $
Loading
Personal Weather Stations






























Interactive Weather Map
Tropical Storm Tracking
New forecast layout! Learn more

10-Day Weather Forecast

Advertisements
Track Severe Weather on mobile